Aeroporto :
LOGIN :

Iscrizione | Disclaimer

   EN    FR    IT 

 










Sommario :    VFR   VFR Marginale   IFR   IFR Intensivo   IFR Molto Intensivo
Visibilità : 
Base nubi : 
>= 8 km
>= 3000ft
5 / 8 km
1000 / 3000 ft
1500m / 5 km
500 / 1000 ft
800 / 1500m
200 / 500 ft
< 800m
< 200 ft
Simboli :   Temporali  Nebbia  Neve Forte  Precipitazioni Forti  Vento > 20 kt
SIGMETs :   Varie  Temporali  Ghiacco  Turbolenza  Onda orograficha  Ceneri Vulcaniche






- Altitudine del aeroporto : 1299 ft


EDTY - Adolf Würth

ULTIMO METAR :
  • 280450Z 29006KT 250V310 9999 FEW009 BKN022 BKN033 12/10 Q1024

METARs OBSOLETI :
  • 280420Z AUTO 29006KT 9999 // SCT010/// BKN018/// BKN022/// 12/11 Q1024
  • 280350Z AUTO 28006KT 9999 // FEW008/// BKN010/// OVC013/// 12/11 Q1024
  • 280320Z AUTO 29005KT 9999 // FEW009/// SCT015/// OVC029/// 12/11 Q1024
  • 280250Z AUTO 28007KT 9999 // BKN008/// BKN010/// OVC014/// 12/11 Q1024
  • 280220Z AUTO 27009KT 9999 // BKN008/// OVC037/// 13/12 Q1024

Previsioni scadute.



MetMap, La meteo Aeronautica in un colpo d'occhio ! - Copyright ORBIFLY Dicembre 2007 - Disclaimer

ORBIFLY MET'MAP TEAM :

Programmazione e sviluppo : Alexandra Zaïnal
Concezione : Baudouin d'Aumeries
Aiuto per la programmazione : Marc-Olivier Méhu
Supporto tecnico e logistico : Manuel Goepfert
Aiuto per la traduzione : Arnaldo La Scala

Contatto : metmap@orbifly.com




FONTI E CREDITI :

   NOAA